Time;durP1;ratioP1;P1;durP2;ratioP2;P2;SDS_P1;SDS_P2;PMS_P1;PMS_P2;Temp;Humidity;BMP_temperature;BMP_pressure;BME280_temperature;BME280_humidity;BME280_pressure;Samples;Min_cycle;Max_cycle;Signal;HPM_P1;HPM_P2
2023/04/09 00:00:12;;;;;;;32.97;14.30;;;10.90;90.80;;;;;;5093832;28;20561;-69
2023/04/09 00:02:42;;;;;;;32.30;13.43;;;10.90;91.00;;;;;;5093431;28;20231;-69
2023/04/09 00:05:11;;;;;;;28.07;13.30;;;10.90;90.90;;;;;;5093538;28;20209;-69
2023/04/09 00:07:40;;;;;;;31.60;11.80;;;10.90;90.90;;;;;;5093523;28;20624;-72
2023/04/09 00:10:14;;;;;;;30.10;12.83;;;10.90;91.10;;;;;;5093462;28;20222;-71
2023/04/09 00:12:43;;;;;;;30.30;12.27;;;10.90;91.00;;;;;;5093277;28;20381;-72
2023/04/09 00:15:15;;;;;;;35.80;14.00;;;10.90;91.20;;;;;;5093502;28;20202;-69
2023/04/09 00:17:56;;;;;;;34.30;12.27;;;10.90;91.30;;;;;;5093169;28;20191;-69
2023/04/09 00:20:25;;;;;;;36.70;15.40;;;10.80;91.30;;;;;;5093223;28;20192;-69
2023/04/09 00:22:55;;;;;;;30.30;13.67;;;10.80;91.50;;;;;;5093096;28;20195;-69
2023/04/09 00:25:24;;;;;;;32.20;13.13;;;10.80;91.40;;;;;;5093194;28;20203;-70
2023/04/09 00:27:54;;;;;;;35.23;13.53;;;10.70;91.70;;;;;;5093000;28;20659;-68
2023/04/09 00:30:26;;;;;;;26.30;11.77;;;10.80;91.70;;;;;;5091626;28;20218;-68
2023/04/09 00:32:57;;;;;;;30.80;13.13;;;10.80;91.60;;;;;;5092824;28;20555;-69
2023/04/09 00:35:28;;;;;;;23.07;10.50;;;10.80;91.40;;;;;;5093006;28;20208;-69
2023/04/09 00:37:57;;;;;;;24.17;10.87;;;10.80;91.40;;;;;;5093070;28;20629;-68
2023/04/09 00:40:26;;;;;;;22.93;10.27;;;10.80;91.60;;;;;;5091442;28;20195;-68
2023/04/09 00:42:55;;;;;;;19.67;9.23;;;10.80;91.50;;;;;;5091395;28;20635;-69
2023/04/09 00:45:25;;;;;;;21.97;9.33;;;10.80;91.50;;;;;;5092944;28;20291;-69
2023/04/09 00:47:56;;;;;;;18.37;9.77;;;10.80;91.40;;;;;;5091238;28;20576;-68
2023/04/09 00:50:29;;;;;;;18.57;9.40;;;10.80;91.50;;;;;;5092582;28;20203;-68
2023/04/09 00:52:59;;;;;;;18.83;9.03;;;10.70;91.80;;;;;;5092514;28;20226;-68
2023/04/09 00:55:29;;;;;;;19.87;10.23;;;10.70;91.60;;;;;;5092422;28;20202;-68
2023/04/09 00:58:03;;;;;;;19.63;8.93;;;10.70;91.50;;;;;;5092465;28;20205;-68
2023/04/09 01:00:38;;;;;;;15.53;8.50;;;10.70;91.30;;;;;;5091251;28;20222;-68
2023/04/09 01:03:08;;;;;;;20.70;9.70;;;10.70;91.60;;;;;;5092196;28;20660;-68
2023/04/09 01:05:54;;;;;;;16.27;10.27;;;10.70;91.60;;;;;;5092287;28;20657;-68
2023/04/09 01:08:39;;;;;;;16.63;8.07;;;10.70;91.40;;;;;;5092273;28;20204;-68
2023/04/09 01:11:21;;;;;;;15.30;8.90;;;10.70;91.50;;;;;;5092257;28;20606;-69
2023/04/09 01:14:01;;;;;;;14.00;9.10;;;10.70;91.30;;;;;;5090105;28;20213;-69
2023/04/09 01:16:34;;;;;;;14.57;9.43;;;10.70;91.40;;;;;;5090801;28;20206;-68
2023/04/09 01:19:16;;;;;;;16.53;8.83;;;10.70;91.30;;;;;;5090530;28;20210;-68
2023/04/09 01:21:48;;;;;;;13.63;8.43;;;10.60;91.40;;;;;;5090780;28;20205;-69
2023/04/09 01:24:32;;;;;;;16.93;9.20;;;10.60;91.50;;;;;;5090679;28;20219;-68
2023/04/09 01:27:08;;;;;;;15.00;8.87;;;10.60;91.50;;;;;;5091709;28;20596;-69
2023/04/09 01:30:05;;;;;;;14.40;8.37;;;10.60;91.60;;;;;;5090414;28;20202;-68
2023/04/09 01:32:35;;;;;;;16.30;9.30;;;10.60;91.70;;;;;;5091539;28;20228;-68
2023/04/09 01:35:06;;;;;;;16.40;9.37;;;10.60;91.90;;;;;;5091713;28;20615;-68
2023/04/09 01:37:44;;;;;;;13.93;9.27;;;10.60;91.70;;;;;;5091463;28;20672;-68
2023/04/09 01:40:16;;;;;;;13.50;8.80;;;10.60;91.80;;;;;;5090352;28;20199;-68
2023/04/09 01:42:47;;;;;;;16.83;9.83;;;10.60;91.60;;;;;;5090184;28;20203;-69
2023/04/09 01:45:23;;;;;;;18.00;9.57;;;10.60;91.50;;;;;;5091582;28;20660;-68
2023/04/09 01:47:58;;;;;;;13.80;10.00;;;10.60;91.60;;;;;;5089862;28;20231;-68
2023/04/09 01:50:31;;;;;;;15.20;10.33;;;10.60;91.60;;;;;;5089997;28;20226;-68
2023/04/09 01:53:04;;;;;;;14.73;9.87;;;10.60;91.80;;;;;;5090036;28;20320;-68
2023/04/09 01:55:33;;;;;;;15.97;9.77;;;10.60;91.70;;;;;;5091312;28;20657;-68
2023/04/09 01:58:07;;;;;;;17.47;9.47;;;10.60;91.80;;;;;;5091307;28;20199;-68
2023/04/09 02:00:46;;;;;;;14.87;10.93;;;10.60;91.70;;;;;;5090114;28;20209;-68
2023/04/09 02:03:20;;;;;;;16.23;10.30;;;10.60;91.70;;;;;;5091240;28;20199;-68
2023/04/09 02:05:56;;;;;;;17.33;10.30;;;10.60;91.50;;;;;;5090000;28;20202;-68
2023/04/09 02:08:30;;;;;;;15.07;10.03;;;10.60;91.60;;;;;;5091128;28;20660;-68
2023/04/09 02:11:05;;;;;;;19.13;10.13;;;10.60;91.50;;;;;;5091270;28;20554;-68
2023/04/09 02:13:36;;;;;;;21.47;10.37;;;10.60;91.60;;;;;;5091044;28;20310;-68
2023/04/09 02:16:09;;;;;;;16.30;10.63;;;10.60;91.60;;;;;;5091184;28;20245;-68
2023/04/09 02:18:40;;;;;;;17.63;10.80;;;10.60;91.70;;;;;;5089823;28;20637;-68
2023/04/09 02:21:13;;;;;;;19.60;10.43;;;10.60;91.70;;;;;;5089962;28;20256;-68
2023/04/09 02:23:42;;;;;;;17.30;10.57;;;10.60;91.80;;;;;;5091250;28;20199;-68
2023/04/09 02:26:10;;;;;;;14.00;10.03;;;10.50;91.60;;;;;;5093103;28;20691;-68
2023/04/09 02:28:41;;;;;;;15.07;10.43;;;10.50;91.50;;;;;;5094033;28;20236;-68
2023/04/09 02:31:11;;;;;;;19.07;11.37;;;10.50;91.50;;;;;;5093889;28;20587;-68
2023/04/09 02:33:41;;;;;;;16.77;9.97;;;10.50;91.40;;;;;;5095080;28;20233;-68
2023/04/09 02:36:13;;;;;;;17.63;10.10;;;10.50;91.50;;;;;;5093768;28;20255;-68
2023/04/09 02:38:43;;;;;;;17.37;10.50;;;10.50;91.10;;;;;;5094876;28;20203;-68
2023/04/09 02:41:14;;;;;;;17.83;9.83;;;10.50;91.50;;;;;;5094945;28;20250;-68
2023/04/09 02:43:48;;;;;;;16.93;9.50;;;10.50;91.30;;;;;;5094814;28;20276;-68
2023/04/09 02:46:18;;;;;;;16.10;10.17;;;10.50;91.20;;;;;;5093384;28;20209;-68
2023/04/09 02:48:53;;;;;;;16.57;10.03;;;10.50;91.00;;;;;;5093231;28;20312;-68
2023/04/09 02:51:26;;;;;;;15.67;10.33;;;10.40;91.20;;;;;;5094592;28;20297;-68
2023/04/09 02:53:55;;;;;;;19.03;10.30;;;10.50;91.30;;;;;;5093363;28;20324;-69
2023/04/09 02:56:25;;;;;;;16.10;9.70;;;10.50;91.30;;;;;;5094720;28;20187;-68
2023/04/09 02:58:54;;;;;;;13.47;9.20;;;10.50;90.90;;;;;;5093388;28;20260;-68
2023/04/09 03:01:24;;;;;;;15.50;8.77;;;10.40;90.80;;;;;;5093328;28;20231;-69
2023/04/09 03:03:53;;;;;;;13.80;9.13;;;10.40;91.00;;;;;;5093026;28;20211;-68
2023/04/09 03:06:22;;;;;;;16.77;8.70;;;10.40;90.90;;;;;;5094540;28;20278;-69
2023/04/09 03:08:53;;;;;;;13.90;9.37;;;10.40;90.70;;;;;;5094446;28;20221;-69
2023/04/09 03:11:27;;;;;;;14.57;8.80;;;10.40;90.50;;;;;;5093254;28;20264;-69
2023/04/09 03:14:01;;;;;;;13.37;8.47;;;10.40;90.70;;;;;;5094339;28;20210;-68
2023/04/09 03:16:31;;;;;;;10.77;8.23;;;10.30;90.20;;;;;;5093086;28;20571;-68
2023/04/09 03:19:02;;;;;;;16.50;9.33;;;10.30;90.30;;;;;;5092730;28;20206;-68
2023/04/09 03:21:30;;;;;;;12.93;8.23;;;10.20;90.10;;;;;;5092947;28;20762;-68
2023/04/09 03:24:00;;;;;;;15.00;7.50;;;10.20;89.80;;;;;;5092959;28;20190;-68
2023/04/09 03:26:35;;;;;;;12.40;9.17;;;10.20;89.90;;;;;;5093100;28;20212;-68
2023/04/09 03:29:10;;;;;;;14.53;9.43;;;10.20;90.00;;;;;;5092864;28;20635;-68
2023/04/09 03:31:44;;;;;;;12.70;8.63;;;10.20;89.70;;;;;;5094189;28;20212;-68
2023/04/09 03:34:17;;;;;;;16.97;9.60;;;10.20;89.20;;;;;;5092620;28;20240;-68
2023/04/09 03:36:51;;;;;;;11.87;8.70;;;10.20;89.20;;;;;;5092178;28;20605;-69
2023/04/09 03:39:33;;;;;;;15.47;9.43;;;10.10;89.20;;;;;;5092485;28;20199;-68
2023/04/09 03:42:02;;;;;;;16.30;9.37;;;10.10;89.20;;;;;;5092631;28;20203;-69
2023/04/09 03:44:41;;;;;;;18.87;9.63;;;10.10;89.50;;;;;;5092642;28;20207;-69
2023/04/09 03:47:15;;;;;;;16.43;10.03;;;10.00;89.60;;;;;;5092524;28;20221;-68
2023/04/09 03:49:44;;;;;;;16.70;9.50;;;10.00;89.60;;;;;;5092332;28;20194;-69
2023/04/09 03:52:21;;;;;;;18.13;9.93;;;10.00;89.40;;;;;;5092571;28;20209;-68
2023/04/09 03:55:06;;;;;;;11.50;9.43;;;10.00;89.70;;;;;;5092237;28;20238;-69
2023/04/09 03:57:34;;;;;;;13.63;9.00;;;9.90;90.00;;;;;;5092286;28;20298;-69
2023/04/09 04:00:07;;;;;;;13.27;9.67;;;9.90;89.80;;;;;;5092264;28;20290;-70
2023/04/09 04:02:52;;;;;;;14.37;9.43;;;9.90;90.10;;;;;;5093468;28;20241;-70
2023/04/09 04:05:50;;;;;;;14.13;9.73;;;9.80;90.20;;;;;;5093300;28;20213;-69
2023/04/09 04:08:19;;;;;;;15.93;9.00;;;9.70;90.40;;;;;;5092061;28;20206;-68
2023/04/09 04:10:51;;;;;;;13.67;9.97;;;9.70;90.50;;;;;;5091500;28;20713;-68
2023/04/09 04:13:21;;;;;;;16.20;9.13;;;9.70;90.60;;;;;;5091973;28;20334;-69
2023/04/09 04:15:55;;;;;;;12.30;8.97;;;9.60;90.90;;;;;;5091874;28;20254;-69
2023/04/09 04:18:26;;;;;;;14.60;8.90;;;9.60;90.80;;;;;;5092007;28;20209;-69
2023/04/09 04:20:55;;;;;;;15.30;9.83;;;9.50;91.20;;;;;;5091883;28;20201;-68
2023/04/09 04:23:23;;;;;;;12.70;8.80;;;9.50;91.50;;;;;;5091682;28;20288;-68
2023/04/09 04:25:59;;;;;;;15.87;8.93;;;9.50;91.70;;;;;;5091745;28;20201;-69
2023/04/09 04:28:35;;;;;;;16.23;10.17;;;9.40;92.10;;;;;;5091643;28;20263;-69
2023/04/09 04:31:10;;;;;;;13.67;8.47;;;9.40;92.20;;;;;;5091632;28;20679;-69
2023/04/09 04:33:42;;;;;;;12.83;8.50;;;9.40;92.40;;;;;;5091531;28;20222;-69
2023/04/09 04:36:15;;;;;;;15.27;8.50;;;9.40;92.60;;;;;;5091523;28;20660;-69
2023/04/09 04:38:48;;;;;;;11.47;7.93;;;9.40;92.50;;;;;;5091433;28;20611;-69
2023/04/09 04:41:28;;;;;;;13.00;8.83;;;9.40;92.80;;;;;;5091706;28;20197;-69
2023/04/09 04:44:08;;;;;;;13.77;8.63;;;9.40;92.80;;;;;;5091421;28;20205;-69
2023/04/09 04:46:37;;;;;;;11.27;7.73;;;9.40;93.10;;;;;;5091230;28;20193;-68
2023/04/09 04:49:10;;;;;;;14.27;9.30;;;9.40;93.40;;;;;;5091529;28;20232;-68
2023/04/09 04:51:51;;;;;;;15.50;8.80;;;9.50;93.40;;;;;;5091263;28;20271;-69
2023/04/09 04:54:19;;;;;;;11.07;8.60;;;9.50;93.60;;;;;;5091161;28;20225;-69
2023/04/09 04:56:55;;;;;;;14.73;9.10;;;9.60;93.60;;;;;;5091070;28;20205;-69
2023/04/09 04:59:37;;;;;;;15.43;9.67;;;9.60;93.60;;;;;;5091185;28;20234;-69
2023/04/09 05:02:07;;;;;;;16.30;8.33;;;9.70;93.60;;;;;;5091065;28;20237;-68
2023/04/09 05:04:48;;;;;;;11.23;7.87;;;9.70;93.40;;;;;;5091162;28;20210;-70
2023/04/09 05:07:19;;;;;;;15.80;8.20;;;9.70;93.60;;;;;;5090940;28;20230;-69
2023/04/09 05:09:54;;;;;;;12.37;8.53;;;9.70;93.40;;;;;;5090795;28;20299;-70
2023/04/09 05:12:23;;;;;;;19.57;11.90;;;9.70;93.90;;;;;;5092177;28;20741;-70
2023/04/09 05:14:53;;;;;;;13.07;9.80;;;9.70;94.00;;;;;;5090728;28;20315;-69
2023/04/09 05:17:22;;;;;;;13.80;9.63;;;9.70;93.80;;;;;;5092134;28;20732;-69
2023/04/09 05:19:56;;;;;;;13.23;8.60;;;9.70;94.10;;;;;;5090729;28;20208;-69
2023/04/09 05:22:33;;;;;;;13.17;8.67;;;9.80;94.00;;;;;;5090762;28;20216;-69
2023/04/09 05:25:09;;;;;;;14.63;8.80;;;9.90;94.00;;;;;;5090627;28;20247;-69
2023/04/09 05:27:40;;;;;;;14.60;8.17;;;9.90;94.10;;;;;;5090683;28;20197;-68
2023/04/09 05:30:12;;;;;;;13.07;8.30;;;10.00;93.90;;;;;;5092049;28;20227;-68
2023/04/09 05:32:42;;;;;;;14.17;7.93;;;10.00;94.00;;;;;;5090742;28;20608;-68
2023/04/09 05:35:12;;;;;;;8.80;6.87;;;10.10;93.60;;;;;;5090514;28;20234;-69
2023/04/09 05:37:45;;;;;;;13.00;8.10;;;10.10;93.70;;;;;;5090614;28;20259;-68
2023/04/09 05:40:14;;;;;;;12.93;7.20;;;10.10;94.00;;;;;;5091818;28;20689;-68
2023/04/09 05:42:46;;;;;;;10.17;8.50;;;10.20;93.80;;;;;;5090531;28;20226;-68
2023/04/09 05:45:38;;;;;;;9.87;7.70;;;10.20;93.50;;;;;;5089302;28;20235;-67
2023/04/09 05:48:08;;;;;;;9.00;6.77;;;10.20;92.90;;;;;;5072303;28;20307;-67
2023/04/09 05:50:40;;;;;;;11.37;6.53;;;10.20;92.70;;;;;;5089189;28;20235;-67
2023/04/09 05:53:28;;;;;;;9.23;7.67;;;10.20;92.90;;;;;;5089188;28;20212;-69
2023/04/09 05:55:57;;;;;;;14.17;7.90;;;10.30;92.90;;;;;;5072162;28;20230;-68
2023/04/09 05:58:35;;;;;;;12.50;7.73;;;10.30;92.20;;;;;;5089139;28;20201;-70
2023/04/09 06:01:06;;;;;;;10.93;6.80;;;10.30;92.60;;;;;;5088886;28;20295;-70
2023/04/09 06:03:35;;;;;;;10.57;6.47;;;10.30;92.70;;;;;;5072186;28;20661;-70
2023/04/09 06:06:07;;;;;;;43.70;26.20;;;10.40;92.50;;;;;;5072588;28;20206;-70
2023/04/09 06:08:36;;;;;;;10.67;7.97;;;10.40;92.00;;;;;;5089165;28;20284;-68
2023/04/09 06:11:08;;;;;;;12.17;7.30;;;10.40;91.90;;;;;;5072097;28;20208;-69
2023/04/09 06:13:37;;;;;;;8.47;6.73;;;10.40;91.60;;;;;;5072184;28;20201;-70
2023/04/09 06:16:09;;;;;;;10.20;6.43;;;10.30;91.60;;;;;;5072124;28;20236;-69
2023/04/09 06:18:38;;;;;;;10.30;6.83;;;10.30;92.00;;;;;;5088893;28;20201;-69
2023/04/09 06:21:12;;;;;;;9.10;6.17;;;10.40;91.90;;;;;;5088737;28;20693;-68
2023/04/09 06:23:41;;;;;;;15.03;8.27;;;10.40;91.10;;;;;;5082131;28;20210;-68
2023/04/09 06:26:09;;;;;;;10.90;6.70;;;10.40;91.40;;;;;;5076132;28;20219;-69
2023/04/09 06:28:38;;;;;;;10.27;6.80;;;10.40;91.50;;;;;;5071952;28;20213;-69
2023/04/09 06:31:07;;;;;;;13.93;8.10;;;10.40;91.60;;;;;;5076001;28;20247;-68
2023/04/09 06:33:36;;;;;;;12.87;9.20;;;10.40;91.40;;;;;;5091317;28;20195;-70
2023/04/09 06:36:05;;;;;;;9.77;7.03;;;10.50;92.10;;;;;;5091258;28;20214;-69
2023/04/09 06:38:36;;;;;;;12.37;7.33;;;10.50;92.00;;;;;;5091635;28;20236;-69
2023/04/09 06:41:07;;;;;;;9.43;6.17;;;10.50;91.30;;;;;;5091459;28;20209;-70
2023/04/09 06:43:38;;;;;;;9.33;5.97;;;10.60;91.80;;;;;;5091590;28;20672;-69
2023/04/09 06:46:10;;;;;;;10.47;5.13;;;10.60;92.10;;;;;;5081315;28;20201;-69
2023/04/09 06:48:41;;;;;;;10.10;6.70;;;10.70;92.20;;;;;;5079108;28;20265;-68
2023/04/09 06:51:10;;;;;;;10.00;6.87;;;10.80;92.70;;;;;;5069372;28;20597;-68
2023/04/09 06:53:43;;;;;;;11.37;6.47;;;10.90;92.40;;;;;;5091492;28;20198;-69
2023/04/09 06:56:14;;;;;;;9.23;6.07;;;10.90;92.20;;;;;;5090995;28;20736;-69
2023/04/09 06:58:43;;;;;;;7.87;5.53;;;11.00;91.80;;;;;;5070790;28;20204;-70
2023/04/09 07:01:12;;;;;;;8.50;5.73;;;11.10;92.10;;;;;;5070711;28;20223;-70
2023/04/09 07:03:41;;;;;;;10.10;5.80;;;11.20;91.70;;;;;;5070875;28;20199;-70
2023/04/09 07:06:12;;;;;;;38.17;21.83;;;11.20;91.20;;;;;;5070376;28;20197;-70
2023/04/09 07:08:42;;;;;;;8.93;6.10;;;11.20;92.10;;;;;;5086110;28;20194;-69
2023/04/09 07:11:11;;;;;;;16.40;10.47;;;11.40;91.70;;;;;;5088726;28;20199;-70
2023/04/09 07:13:43;;;;;;;39.47;24.47;;;11.40;91.10;;;;;;5090085;28;20191;-71
2023/04/09 07:16:12;;;;;;;13.67;6.83;;;11.50;91.40;;;;;;5094206;28;20625;-69
2023/04/09 07:18:40;;;;;;;8.43;5.40;;;11.50;89.80;;;;;;5090036;28;20195;-70
2023/04/09 07:21:09;;;;;;;10.03;5.63;;;11.50;89.70;;;;;;5084689;28;20215;-68
2023/04/09 07:23:45;;;;;;;13.80;6.80;;;11.60;88.60;;;;;;5094245;28;20230;-68
2023/04/09 07:26:14;;;;;;;7.63;5.27;;;11.60;87.30;;;;;;5094160;28;20207;-68
2023/04/09 07:28:45;;;;;;;8.90;5.53;;;11.60;87.10;;;;;;5094128;28;20241;-67
2023/04/09 07:31:14;;;;;;;8.73;5.17;;;11.70;89.40;;;;;;5093986;28;20705;-67
2023/04/09 07:33:43;;;;;;;7.83;5.50;;;11.70;86.80;;;;;;5094130;28;20280;-68
2023/04/09 07:36:13;;;;;;;12.47;5.93;;;11.80;87.80;;;;;;5093826;28;20228;-67
2023/04/09 07:38:44;;;;;;;15.40;8.17;;;11.90;87.80;;;;;;5094361;28;20202;-68
2023/04/09 07:41:13;;;;;;;15.27;7.97;;;11.90;88.00;;;;;;5093655;28;20719;-67
2023/04/09 07:43:42;;;;;;;8.17;5.50;;;12.00;88.80;;;;;;5093916;28;20246;-67
2023/04/09 07:46:11;;;;;;;11.30;5.67;;;12.10;85.90;;;;;;5093728;28;20703;-68
2023/04/09 07:48:39;;;;;;;10.83;6.20;;;12.10;85.80;;;;;;5089671;28;20220;-67
2023/04/09 07:51:08;;;;;;;13.77;7.27;;;12.20;87.50;;;;;;5084393;28;20213;-69
2023/04/09 07:53:37;;;;;;;11.97;6.60;;;12.30;87.50;;;;;;5093496;28;20662;-68
2023/04/09 07:56:08;;;;;;;8.83;5.40;;;12.40;86.20;;;;;;5093308;28;20231;-68
2023/04/09 07:58:39;;;;;;;10.73;5.43;;;12.40;84.60;;;;;;5093640;28;20207;-68
2023/04/09 08:01:08;;;;;;;10.87;7.20;;;12.50;85.50;;;;;;5093521;28;20221;-68
2023/04/09 08:03:37;;;;;;;8.93;5.00;;;12.60;85.30;;;;;;5093349;28;20204;-68
2023/04/09 08:06:08;;;;;;;7.83;5.27;;;12.70;85.00;;;;;;5092654;28;20189;-68
2023/04/09 08:08:37;;;;;;;11.97;6.83;;;12.70;83.40;;;;;;5089821;28;20191;-67
2023/04/09 08:11:09;;;;;;;10.37;5.60;;;12.80;84.00;;;;;;5092714;28;20697;-68
2023/04/09 08:13:37;;;;;;;9.07;5.50;;;12.90;84.70;;;;;;5093810;28;20294;-67
2023/04/09 08:16:06;;;;;;;8.50;4.27;;;13.00;79.70;;;;;;5092858;28;20289;-68
2023/04/09 08:18:36;;;;;;;8.23;5.50;;;13.00;79.10;;;;;;5093228;28;20199;-68
2023/04/09 08:21:06;;;;;;;6.97;4.40;;;13.10;81.10;;;;;;5091678;28;20563;-69
2023/04/09 08:23:34;;;;;;;13.40;6.47;;;13.20;80.00;;;;;;5092819;28;20696;-69
2023/04/09 08:26:07;;;;;;;8.10;4.63;;;13.30;79.40;;;;;;5092941;28;20208;-68
2023/04/09 08:28:36;;;;;;;8.40;5.70;;;13.40;77.00;;;;;;5093053;28;20674;-67
2023/04/09 08:31:05;;;;;;;7.20;4.43;;;13.40;74.00;;;;;;5092954;28;20752;-68
2023/04/09 08:33:34;;;;;;;7.30;4.73;;;13.50;76.00;;;;;;5092855;28;20192;-68
2023/04/09 08:36:10;;;;;;;9.70;5.53;;;13.50;75.80;;;;;;5084925;28;20234;-68
2023/04/09 08:38:39;;;;;;;8.10;5.27;;;13.60;75.90;;;;;;5081876;28;20210;-68
2023/04/09 08:41:18;;;;;;;10.73;4.73;;;13.70;75.20;;;;;;5083995;28;20242;-67
2023/04/09 08:43:47;;;;;;;9.77;7.70;;;13.90;74.50;;;;;;5072729;28;20211;-70
2023/04/09 08:46:29;;;;;;;9.10;5.60;;;13.90;74.60;;;;;;5073144;28;20201;-68
2023/04/09 08:48:57;;;;;;;14.03;4.83;;;14.10;73.70;;;;;;5072832;28;20286;-68
2023/04/09 08:51:27;;;;;;;5.03;4.00;;;14.10;72.80;;;;;;5072092;28;20694;-68
2023/04/09 08:53:57;;;;;;;11.83;5.87;;;14.20;71.80;;;;;;5072615;28;20276;-68
2023/04/09 08:56:30;;;;;;;5.70;3.80;;;14.30;69.80;;;;;;5072721;28;20217;-67
2023/04/09 08:58:59;;;;;;;6.37;5.00;;;14.40;68.40;;;;;;5072656;28;20611;-68
2023/04/09 09:01:34;;;;;;;10.60;5.60;;;14.40;68.70;;;;;;5072731;28;20196;-69
2023/04/09 09:04:04;;;;;;;7.97;4.40;;;14.50;69.00;;;;;;5104682;28;20208;-67
2023/04/09 09:06:37;;;;;;;14.70;7.67;;;14.70;66.40;;;;;;5072624;28;20197;-67
2023/04/09 09:09:08;;;;;;;8.43;6.20;;;14.80;69.30;;;;;;5072429;28;20288;-66
2023/04/09 09:11:40;;;;;;;8.70;6.27;;;15.00;68.80;;;;;;5091452;28;20626;-68
2023/04/09 09:14:10;;;;;;;8.70;6.37;;;15.10;66.40;;;;;;5081232;28;20201;-68
2023/04/09 09:16:42;;;;;;;7.07;4.60;;;15.20;63.30;;;;;;5086767;28;20717;-68
2023/04/09 09:19:29;;;;;;;8.83;6.10;;;15.30;62.70;;;;;;5081070;28;20209;-68
2023/04/09 09:22:01;;;;;;;10.67;7.07;;;15.40;62.90;;;;;;5072093;28;20254;-68
2023/04/09 09:24:31;;;;;;;109.93;49.27;;;15.60;65.10;;;;;;5072151;28;20193;-70
2023/04/09 09:27:02;;;;;;;61.83;33.17;;;15.80;62.60;;;;;;5087696;28;20249;-69
2023/04/09 09:29:30;;;;;;;52.07;25.63;;;16.00;63.20;;;;;;5091098;28;20265;-68
2023/04/09 09:32:00;;;;;;;22.43;11.87;;;16.10;59.80;;;;;;5092414;28;20283;-69
2023/04/09 09:34:29;;;;;;;15.20;10.87;;;16.30;60.80;;;;;;5091105;28;20202;-70
2023/04/09 09:36:58;;;;;;;15.47;10.17;;;16.50;58.80;;;;;;5092359;28;20582;-69
2023/04/09 09:39:43;;;;;;;9.40;6.67;;;16.70;58.50;;;;;;5076568;28;20226;-69
2023/04/09 09:42:13;;;;;;;7.03;5.60;;;16.90;56.50;;;;;;5092268;28;20198;-68
2023/04/09 09:44:42;;;;;;;6.23;3.87;;;17.00;54.10;;;;;;5092181;28;20207;-69
2023/04/09 09:47:12;;;;;;;6.57;3.50;;;17.00;53.30;;;;;;5091644;28;20225;-69
2023/04/09 09:49:41;;;;;;;6.97;4.67;;;17.20;53.80;;;;;;5090993;28;20647;-69
2023/04/09 09:52:10;;;;;;;13.00;8.60;;;17.40;53.50;;;;;;5081591;28;20614;-68
2023/04/09 09:54:41;;;;;;;17.67;11.23;;;17.50;51.10;;;;;;5071583;28;20195;-69
2023/04/09 09:57:13;;;;;;;18.57;13.03;;;17.50;52.20;;;;;;5071899;28;20217;-70
2023/04/09 09:59:50;;;;;;;10.80;7.10;;;17.70;53.40;;;;;;5071692;28;20195;-68
2023/04/09 10:02:22;;;;;;;7.43;5.43;;;17.80;52.00;;;;;;5071555;28;20202;-69
2023/04/09 10:04:52;;;;;;;12.00;9.30;;;17.90;50.20;;;;;;5086221;28;20207;-69
2023/04/09 10:07:22;;;;;;;12.67;8.57;;;17.90;51.80;;;;;;5075178;28;20551;-69
2023/04/09 10:09:54;;;;;;;10.10;6.47;;;18.10;52.20;;;;;;5075564;28;20208;-70
2023/04/09 10:12:26;;;;;;;5.87;5.17;;;18.30;52.20;;;;;;5091963;28;20225;-70
2023/04/09 10:14:56;;;;;;;7.03;4.17;;;18.40;50.80;;;;;;5092044;28;20214;-67
2023/04/09 10:17:25;;;;;;;6.77;4.20;;;18.60;50.20;;;;;;5091435;28;20237;-68
2023/04/09 10:20:01;;;;;;;3.87;3.00;;;18.70;50.20;;;;;;5091326;28;20204;-68
2023/04/09 10:22:33;;;;;;;7.30;4.20;;;18.80;48.80;;;;;;5091229;28;20566;-68
2023/04/09 10:25:03;;;;;;;5.37;3.33;;;18.80;48.90;;;;;;5091695;28;20249;-69
2023/04/09 10:27:34;;;;;;;3.30;3.00;;;18.90;46.90;;;;;;5091962;28;20249;-68
2023/04/09 10:30:04;;;;;;;7.30;4.17;;;18.80;46.90;;;;;;5091886;28;20564;-69
2023/04/09 10:32:35;;;;;;;12.33;8.00;;;18.80;47.20;;;;;;5084782;28;20613;-69
2023/04/09 10:35:05;;;;;;;8.57;5.87;;;18.80;47.30;;;;;;5086764;28;20274;-69
2023/04/09 10:37:36;;;;;;;12.60;9.27;;;18.90;46.60;;;;;;5091453;28;20224;-69
2023/04/09 10:40:06;;;;;;;5.97;4.57;;;18.80;45.10;;;;;;5091633;28;20281;-69
2023/04/09 10:42:40;;;;;;;12.97;8.50;;;18.60;44.80;;;;;;5091680;28;20198;-69
2023/04/09 10:45:10;;;;;;;9.70;5.73;;;18.60;46.00;;;;;;5091332;28;20607;-69
2023/04/09 10:47:41;;;;;;;5.93;4.47;;;18.60;45.90;;;;;;5093393;28;20239;-69
2023/04/09 10:50:21;;;;;;;10.10;7.10;;;18.60;45.00;;;;;;5095299;28;20208;-69
2023/04/09 10:52:54;;;;;;;8.67;5.10;;;18.60;46.30;;;;;;5095338;28;20199;-67
2023/04/09 10:55:35;;;;;;;4.77;3.47;;;18.70;46.20;;;;;;5095326;28;20654;-70
2023/04/09 10:58:06;;;;;;;5.00;3.93;;;18.80;45.10;;;;;;5095390;28;20277;-69
2023/04/09 11:00:40;;;;;;;6.17;3.97;;;18.80;44.10;;;;;;5094696;28;20193;-68
2023/04/09 11:03:23;;;;;;;8.27;6.60;;;18.80;43.90;;;;;;5095232;28;20196;-70
2023/04/09 11:05:59;;;;;;;10.57;8.00;;;18.80;45.10;;;;;;5090468;28;20724;-69
2023/04/09 11:08:30;;;;;;;8.20;6.43;;;18.90;45.60;;;;;;5079835;28;20697;-70
2023/04/09 11:11:00;;;;;;;8.27;5.33;;;19.00;44.30;;;;;;5094808;28;20216;-72
2023/04/09 11:13:31;;;;;;;9.53;6.67;;;19.10;44.30;;;;;;5094342;28;20297;-71
2023/04/09 11:16:02;;;;;;;5.00;4.50;;;19.30;45.40;;;;;;5094107;28;20251;-71
2023/04/09 11:18:33;;;;;;;6.73;4.63;;;19.40;43.40;;;;;;5094894;28;20314;-71
2023/04/09 11:21:03;;;;;;;4.97;3.10;;;19.50;44.80;;;;;;5094282;28;20213;-68
2023/04/09 11:23:33;;;;;;;5.23;3.53;;;19.80;44.30;;;;;;5094476;28;20208;-70
2023/04/09 11:26:02;;;;;;;6.97;4.73;;;19.90;43.10;;;;;;5094797;28;20257;-69
2023/04/09 11:28:35;;;;;;;10.63;7.37;;;20.00;44.40;;;;;;5094600;28;20200;-70
2023/04/09 11:31:05;;;;;;;13.37;9.40;;;20.10;43.70;;;;;;5094448;28;20542;-71
2023/04/09 11:33:35;;;;;;;14.67;10.17;;;20.30;43.60;;;;;;5094668;28;20607;-69
2023/04/09 11:36:05;;;;;;;9.33;7.77;;;20.40;43.10;;;;;;5094629;28;20353;-69
2023/04/09 11:38:34;;;;;;;7.90;7.10;;;20.30;42.80;;;;;;5094524;28;20220;-70
2023/04/09 11:41:03;;;;;;;8.30;6.47;;;20.20;42.30;;;;;;5086383;28;20197;-70
2023/04/09 11:43:36;;;;;;;5.17;4.10;;;20.20;42.20;;;;;;5082379;28;20733;-68
2023/04/09 11:46:06;;;;;;;7.07;3.23;;;20.00;41.40;;;;;;5074265;28;20189;-68
2023/04/09 11:48:36;;;;;;;5.67;2.07;;;19.90;41.50;;;;;;5074015;28;20647;-67
2023/04/09 11:51:05;;;;;;;4.07;2.93;;;19.90;41.20;;;;;;5086606;28;20201;-68
2023/04/09 11:53:37;;;;;;;6.00;2.90;;;19.80;41.20;;;;;;5094239;28;20232;-66
2023/04/09 11:56:06;;;;;;;3.13;1.97;;;19.90;42.20;;;;;;5094012;28;20207;-65
2023/04/09 11:58:36;;;;;;;2.43;2.23;;;20.00;42.00;;;;;;5093834;28;20311;-68
2023/04/09 12:01:05;;;;;;;6.57;3.27;;;20.10;42.40;;;;;;5094237;28;20562;-69
2023/04/09 12:03:36;;;;;;;4.10;3.23;;;20.60;43.00;;;;;;5093696;28;20193;-66
2023/04/09 12:06:06;;;;;;;5.73;3.67;;;20.90;42.00;;;;;;5094046;28;20211;-67
2023/04/09 12:08:36;;;;;;;4.97;3.37;;;21.20;41.90;;;;;;5093950;28;20225;-68
2023/04/09 12:11:11;;;;;;;5.13;3.23;;;21.40;40.90;;;;;;5093772;28;20190;-68
2023/04/09 12:13:43;;;;;;;5.00;3.77;;;21.50;41.40;;;;;;5094239;28;20200;-69
2023/04/09 12:16:12;;;;;;;10.67;5.50;;;21.80;41.50;;;;;;5093798;28;20307;-70
2023/04/09 12:18:40;;;;;;;12.23;8.50;;;21.80;40.80;;;;;;5093900;28;20273;-71
2023/04/09 12:21:09;;;;;;;6.90;4.10;;;21.70;39.80;;;;;;5093836;28;20194;-71
2023/04/09 12:23:37;;;;;;;5.77;4.17;;;21.40;39.00;;;;;;5093046;28;20194;-70
2023/04/09 12:26:06;;;;;;;6.80;4.90;;;21.20;39.10;;;;;;5093646;28;20208;-70
2023/04/09 12:28:34;;;;;;;3.87;2.90;;;21.00;39.80;;;;;;5093852;28;20203;-69
2023/04/09 12:31:04;;;;;;;17.40;8.20;;;20.80;39.70;;;;;;5093489;28;20201;-70
2023/04/09 12:33:36;;;;;;;26.50;15.80;;;20.60;39.40;;;;;;5093225;28;20237;-70
2023/04/09 12:36:05;;;;;;;9.37;6.90;;;20.50;40.20;;;;;;5093423;28;20195;-70
2023/04/09 12:38:33;;;;;;;3.53;3.13;;;20.40;40.20;;;;;;5092827;28;20221;-69
2023/04/09 12:41:02;;;;;;;5.40;4.00;;;20.30;40.60;;;;;;5093471;28;20207;-70
2023/04/09 12:43:30;;;;;;;5.63;2.90;;;20.10;40.20;;;;;;5093263;28;20200;-70
2023/04/09 12:45:59;;;;;;;6.73;3.47;;;19.90;40.00;;;;;;5093315;28;20244;-70
2023/04/09 12:48:29;;;;;;;4.50;3.10;;;19.80;40.30;;;;;;5093061;28;20234;-70
2023/04/09 12:51:07;;;;;;;3.60;3.03;;;19.60;40.20;;;;;;5081306;28;20197;-67
2023/04/09 12:53:43;;;;;;;4.47;2.93;;;19.60;40.50;;;;;;5072324;28;20299;-68
2023/04/09 12:56:12;;;;;;;4.63;2.70;;;19.40;40.70;;;;;;5076984;28;20567;-71
2023/04/09 12:58:41;;;;;;;5.07;2.90;;;19.40;41.00;;;;;;5074224;28;20235;-71
2023/04/09 13:01:10;;;;;;;3.83;2.97;;;19.30;40.40;;;;;;5086246;28;20194;-71
2023/04/09 13:03:41;;;;;;;2.47;2.10;;;19.30;40.70;;;;;;5072229;28;20715;-71